sensor_id;sensor_type;location;lat;lon;timestamp;temperature;humidity
62991;DHT22;49084;48.204;16.202;2023-05-07T00:01:36;12.00;99.90
62991;DHT22;49084;48.204;16.202;2023-05-07T00:04:02;12.00;99.90
62991;DHT22;49084;48.204;16.202;2023-05-07T00:06:29;11.90;99.90
62991;DHT22;49084;48.204;16.202;2023-05-07T00:08:56;11.90;99.90
62991;DHT22;49084;48.204;16.202;2023-05-07T00:11:21;11.90;99.90
62991;DHT22;49084;48.204;16.202;2023-05-07T00:13:48;11.90;99.90
62991;DHT22;49084;48.204;16.202;2023-05-07T00:16:13;11.90;99.90
62991;DHT22;49084;48.204;16.202;2023-05-07T00:18:39;11.90;99.90
62991;DHT22;49084;48.204;16.202;2023-05-07T00:21:05;11.80;99.90
62991;DHT22;49084;48.204;16.202;2023-05-07T00:23:30;11.70;99.90
62991;DHT22;49084;48.204;16.202;2023-05-07T00:25:56;11.60;99.90
62991;DHT22;49084;48.204;16.202;2023-05-07T00:28:22;11.60;99.90
62991;DHT22;49084;48.204;16.202;2023-05-07T00:30:47;11.50;99.90
62991;DHT22;49084;48.204;16.202;2023-05-07T00:33:13;11.50;99.90
62991;DHT22;49084;48.204;16.202;2023-05-07T00:35:39;11.50;99.90
62991;DHT22;49084;48.204;16.202;2023-05-07T00:38:04;11.50;99.90
62991;DHT22;49084;48.204;16.202;2023-05-07T00:40:30;11.50;99.90
62991;DHT22;49084;48.204;16.202;2023-05-07T00:42:55;11.60;99.90
62991;DHT22;49084;48.204;16.202;2023-05-07T00:45:26;11.60;99.90
62991;DHT22;49084;48.204;16.202;2023-05-07T00:47:53;11.60;99.90
62991;DHT22;49084;48.204;16.202;2023-05-07T00:50:19;11.60;99.90
62991;DHT22;49084;48.204;16.202;2023-05-07T00:52:45;11.50;99.90
62991;DHT22;49084;48.204;16.202;2023-05-07T00:55:11;11.50;99.90
62991;DHT22;49084;48.204;16.202;2023-05-07T00:57:40;11.50;99.90
62991;DHT22;49084;48.204;16.202;2023-05-07T01:00:07;11.40;99.90
62991;DHT22;49084;48.204;16.202;2023-05-07T01:02:35;11.40;99.90
62991;DHT22;49084;48.204;16.202;2023-05-07T01:05:02;11.40;99.90
62991;DHT22;49084;48.204;16.202;2023-05-07T01:07:29;11.40;99.90
62991;DHT22;49084;48.204;16.202;2023-05-07T01:09:56;11.30;99.90
62991;DHT22;49084;48.204;16.202;2023-05-07T01:12:23;11.30;99.90
62991;DHT22;49084;48.204;16.202;2023-05-07T01:14:49;11.30;99.90
62991;DHT22;49084;48.204;16.202;2023-05-07T01:17:16;11.30;99.90
62991;DHT22;49084;48.204;16.202;2023-05-07T01:19:42;11.30;99.90
62991;DHT22;49084;48.204;16.202;2023-05-07T01:22:09;11.30;99.90
62991;DHT22;49084;48.204;16.202;2023-05-07T01:24:36;11.30;99.90
62991;DHT22;49084;48.204;16.202;2023-05-07T01:27:02;11.30;99.90
62991;DHT22;49084;48.204;16.202;2023-05-07T01:29:28;11.30;99.90
62991;DHT22;49084;48.204;16.202;2023-05-07T01:31:55;11.30;99.90
62991;DHT22;49084;48.204;16.202;2023-05-07T01:34:22;11.20;99.90
62991;DHT22;49084;48.204;16.202;2023-05-07T01:36:49;11.20;99.90
62991;DHT22;49084;48.204;16.202;2023-05-07T01:39:15;11.10;99.90
62991;DHT22;49084;48.204;16.202;2023-05-07T01:41:42;11.10;99.90
62991;DHT22;49084;48.204;16.202;2023-05-07T01:44:10;11.00;99.90
62991;DHT22;49084;48.204;16.202;2023-05-07T01:46:37;11.00;99.90
62991;DHT22;49084;48.204;16.202;2023-05-07T01:49:03;11.00;99.90
62991;DHT22;49084;48.204;16.202;2023-05-07T01:51:29;11.00;99.90
62991;DHT22;49084;48.204;16.202;2023-05-07T01:53:55;10.90;99.90
62991;DHT22;49084;48.204;16.202;2023-05-07T01:56:21;10.90;99.90
62991;DHT22;49084;48.204;16.202;2023-05-07T01:58:47;10.80;99.90
62991;DHT22;49084;48.204;16.202;2023-05-07T02:01:13;10.80;99.90
62991;DHT22;49084;48.204;16.202;2023-05-07T02:03:39;10.70;99.90
62991;DHT22;49084;48.204;16.202;2023-05-07T02:06:05;10.70;99.90
62991;DHT22;49084;48.204;16.202;2023-05-07T02:08:31;10.70;99.90
62991;DHT22;49084;48.204;16.202;2023-05-07T02:10:56;10.70;99.90
62991;DHT22;49084;48.204;16.202;2023-05-07T02:13:22;10.60;99.90
62991;DHT22;49084;48.204;16.202;2023-05-07T02:15:49;10.60;99.90
62991;DHT22;49084;48.204;16.202;2023-05-07T02:18:16;10.60;99.90
62991;DHT22;49084;48.204;16.202;2023-05-07T02:20:42;10.60;99.90
62991;DHT22;49084;48.204;16.202;2023-05-07T02:23:08;10.60;99.90
62991;DHT22;49084;48.204;16.202;2023-05-07T02:25:34;10.60;99.90
62991;DHT22;49084;48.204;16.202;2023-05-07T02:27:59;10.50;99.90
62991;DHT22;49084;48.204;16.202;2023-05-07T02:30:25;10.50;99.90
62991;DHT22;49084;48.204;16.202;2023-05-07T02:32:51;10.50;99.90
62991;DHT22;49084;48.204;16.202;2023-05-07T02:35:17;10.50;99.90
62991;DHT22;49084;48.204;16.202;2023-05-07T02:37:43;10.50;99.90
62991;DHT22;49084;48.204;16.202;2023-05-07T02:40:09;10.50;99.90
62991;DHT22;49084;48.204;16.202;2023-05-07T02:42:35;10.40;99.90
62991;DHT22;49084;48.204;16.202;2023-05-07T02:45:01;10.40;99.90
62991;DHT22;49084;48.204;16.202;2023-05-07T02:47:27;10.40;99.90
62991;DHT22;49084;48.204;16.202;2023-05-07T02:49:54;10.30;99.90
62991;DHT22;49084;48.204;16.202;2023-05-07T02:52:20;10.30;99.90
62991;DHT22;49084;48.204;16.202;2023-05-07T02:54:46;10.30;99.90
62991;DHT22;49084;48.204;16.202;2023-05-07T02:57:12;10.30;99.90
62991;DHT22;49084;48.204;16.202;2023-05-07T02:59:37;10.30;99.90
62991;DHT22;49084;48.204;16.202;2023-05-07T03:02:03;10.20;99.90
62991;DHT22;49084;48.204;16.202;2023-05-07T03:04:29;10.20;99.90
62991;DHT22;49084;48.204;16.202;2023-05-07T03:06:54;10.20;99.90
62991;DHT22;49084;48.204;16.202;2023-05-07T03:09:20;10.20;99.90
62991;DHT22;49084;48.204;16.202;2023-05-07T03:11:46;10.20;99.90
62991;DHT22;49084;48.204;16.202;2023-05-07T03:14:12;10.20;99.90
62991;DHT22;49084;48.204;16.202;2023-05-07T03:16:38;10.20;99.90
62991;DHT22;49084;48.204;16.202;2023-05-07T03:19:03;10.20;99.90
62991;DHT22;49084;48.204;16.202;2023-05-07T03:21:30;10.10;99.90
62991;DHT22;49084;48.204;16.202;2023-05-07T03:23:56;10.10;99.90
62991;DHT22;49084;48.204;16.202;2023-05-07T03:26:21;10.10;99.90
62991;DHT22;49084;48.204;16.202;2023-05-07T03:28:47;10.10;99.90
62991;DHT22;49084;48.204;16.202;2023-05-07T03:31:13;10.10;99.90
62991;DHT22;49084;48.204;16.202;2023-05-07T03:33:52;10.10;99.90
62991;DHT22;49084;48.204;16.202;2023-05-07T03:36:18;10.10;99.90
62991;DHT22;49084;48.204;16.202;2023-05-07T03:38:44;10.00;99.90
62991;DHT22;49084;48.204;16.202;2023-05-07T03:41:12;10.00;99.90
62991;DHT22;49084;48.204;16.202;2023-05-07T03:43:38;10.00;99.90
62991;DHT22;49084;48.204;16.202;2023-05-07T03:46:04;10.00;99.90
62991;DHT22;49084;48.204;16.202;2023-05-07T03:48:38;10.00;99.90
62991;DHT22;49084;48.204;16.202;2023-05-07T03:51:04;10.00;99.90
62991;DHT22;49084;48.204;16.202;2023-05-07T03:53:30;10.00;99.90
62991;DHT22;49084;48.204;16.202;2023-05-07T03:55:55;10.00;99.90
62991;DHT22;49084;48.204;16.202;2023-05-07T03:58:21;10.00;99.90
62991;DHT22;49084;48.204;16.202;2023-05-07T04:00:47;10.00;99.90
62991;DHT22;49084;48.204;16.202;2023-05-07T04:03:13;10.00;99.90
62991;DHT22;49084;48.204;16.202;2023-05-07T04:05:39;10.00;99.90
62991;DHT22;49084;48.204;16.202;2023-05-07T04:08:05;10.00;99.90
62991;DHT22;49084;48.204;16.202;2023-05-07T04:10:31;10.10;99.90
62991;DHT22;49084;48.204;16.202;2023-05-07T04:12:57;10.10;99.90
62991;DHT22;49084;48.204;16.202;2023-05-07T04:15:23;10.10;99.90
62991;DHT22;49084;48.204;16.202;2023-05-07T04:17:49;10.20;99.90
62991;DHT22;49084;48.204;16.202;2023-05-07T04:20:16;10.20;99.90
62991;DHT22;49084;48.204;16.202;2023-05-07T04:22:42;10.20;99.90
62991;DHT22;49084;48.204;16.202;2023-05-07T04:25:08;10.30;99.90
62991;DHT22;49084;48.204;16.202;2023-05-07T04:27:37;10.40;99.90
62991;DHT22;49084;48.204;16.202;2023-05-07T04:30:03;10.40;99.90
62991;DHT22;49084;48.204;16.202;2023-05-07T04:32:29;10.50;99.90
62991;DHT22;49084;48.204;16.202;2023-05-07T04:34:56;10.50;99.90
62991;DHT22;49084;48.204;16.202;2023-05-07T04:37:22;10.60;99.90
62991;DHT22;49084;48.204;16.202;2023-05-07T04:39:48;10.60;99.90
62991;DHT22;49084;48.204;16.202;2023-05-07T04:42:17;10.80;99.90
62991;DHT22;49084;48.204;16.202;2023-05-07T04:44:44;10.80;99.90
62991;DHT22;49084;48.204;16.202;2023-05-07T04:47:10;10.90;99.90
62991;DHT22;49084;48.204;16.202;2023-05-07T04:49:37;10.90;99.90
62991;DHT22;49084;48.204;16.202;2023-05-07T04:52:03;11.00;99.90
62991;DHT22;49084;48.204;16.202;2023-05-07T04:54:29;11.10;99.90
62991;DHT22;49084;48.204;16.202;2023-05-07T04:56:55;11.20;99.90
62991;DHT22;49084;48.204;16.202;2023-05-07T04:59:20;11.40;99.90
62991;DHT22;49084;48.204;16.202;2023-05-07T05:01:46;11.60;99.90
62991;DHT22;49084;48.204;16.202;2023-05-07T05:04:12;11.70;99.90
62991;DHT22;49084;48.204;16.202;2023-05-07T05:06:38;11.90;99.90
62991;DHT22;49084;48.204;16.202;2023-05-07T05:09:04;12.00;99.90
62991;DHT22;49084;48.204;16.202;2023-05-07T05:11:30;12.00;99.90
62991;DHT22;49084;48.204;16.202;2023-05-07T05:13:56;12.00;99.90
62991;DHT22;49084;48.204;16.202;2023-05-07T05:16:22;12.00;99.90
62991;DHT22;49084;48.204;16.202;2023-05-07T05:18:48;12.10;99.90
62991;DHT22;49084;48.204;16.202;2023-05-07T05:21:13;12.30;99.90
62991;DHT22;49084;48.204;16.202;2023-05-07T05:23:39;12.40;99.90
62991;DHT22;49084;48.204;16.202;2023-05-07T05:26:04;12.50;99.90
62991;DHT22;49084;48.204;16.202;2023-05-07T05:28:30;12.60;99.90
62991;DHT22;49084;48.204;16.202;2023-05-07T05:30:56;12.70;99.90
62991;DHT22;49084;48.204;16.202;2023-05-07T05:33:21;12.80;99.90
62991;DHT22;49084;48.204;16.202;2023-05-07T05:35:47;12.80;99.90
62991;DHT22;49084;48.204;16.202;2023-05-07T05:38:13;12.80;99.90
62991;DHT22;49084;48.204;16.202;2023-05-07T05:40:39;12.80;99.90
62991;DHT22;49084;48.204;16.202;2023-05-07T05:43:05;12.80;99.90
62991;DHT22;49084;48.204;16.202;2023-05-07T05:45:31;12.80;99.90
62991;DHT22;49084;48.204;16.202;2023-05-07T05:47:57;12.80;99.90
62991;DHT22;49084;48.204;16.202;2023-05-07T05:50:23;12.80;99.90
62991;DHT22;49084;48.204;16.202;2023-05-07T05:52:48;12.70;99.90
62991;DHT22;49084;48.204;16.202;2023-05-07T05:55:14;12.80;99.90
62991;DHT22;49084;48.204;16.202;2023-05-07T05:57:40;12.90;99.90
62991;DHT22;49084;48.204;16.202;2023-05-07T06:00:06;12.90;99.90
62991;DHT22;49084;48.204;16.202;2023-05-07T06:02:33;13.00;99.90
62991;DHT22;49084;48.204;16.202;2023-05-07T06:04:58;13.00;99.90
62991;DHT22;49084;48.204;16.202;2023-05-07T06:07:24;13.00;99.90
62991;DHT22;49084;48.204;16.202;2023-05-07T06:09:50;13.10;99.90
62991;DHT22;49084;48.204;16.202;2023-05-07T06:12:16;13.20;99.90
62991;DHT22;49084;48.204;16.202;2023-05-07T06:14:43;13.30;99.90
62991;DHT22;49084;48.204;16.202;2023-05-07T06:17:09;13.30;99.90
62991;DHT22;49084;48.204;16.202;2023-05-07T06:19:35;13.40;99.90
62991;DHT22;49084;48.204;16.202;2023-05-07T06:22:01;13.50;99.90
62991;DHT22;49084;48.204;16.202;2023-05-07T06:24:28;13.60;99.90
62991;DHT22;49084;48.204;16.202;2023-05-07T06:26:54;13.70;99.90
62991;DHT22;49084;48.204;16.202;2023-05-07T06:29:19;13.70;99.90
62991;DHT22;49084;48.204;16.202;2023-05-07T06:31:45;13.70;99.90
62991;DHT22;49084;48.204;16.202;2023-05-07T06:34:11;13.80;99.90
62991;DHT22;49084;48.204;16.202;2023-05-07T06:36:40;13.80;99.90
62991;DHT22;49084;48.204;16.202;2023-05-07T06:39:05;13.80;99.90
62991;DHT22;49084;48.204;16.202;2023-05-07T06:41:31;13.80;99.90
62991;DHT22;49084;48.204;16.202;2023-05-07T06:43:57;13.70;99.90
62991;DHT22;49084;48.204;16.202;2023-05-07T06:46:23;13.70;99.90
62991;DHT22;49084;48.204;16.202;2023-05-07T06:48:48;13.80;99.90
62991;DHT22;49084;48.204;16.202;2023-05-07T06:51:14;13.90;99.90
62991;DHT22;49084;48.204;16.202;2023-05-07T06:53:39;14.10;99.90
62991;DHT22;49084;48.204;16.202;2023-05-07T06:56:05;14.20;99.90
62991;DHT22;49084;48.204;16.202;2023-05-07T06:58:31;14.20;99.90
62991;DHT22;49084;48.204;16.202;2023-05-07T07:00:57;14.30;99.90
62991;DHT22;49084;48.204;16.202;2023-05-07T07:03:23;14.30;99.90
62991;DHT22;49084;48.204;16.202;2023-05-07T07:05:52;14.30;99.90
62991;DHT22;49084;48.204;16.202;2023-05-07T07:08:18;14.30;99.90
62991;DHT22;49084;48.204;16.202;2023-05-07T07:10:44;14.40;99.90
62991;DHT22;49084;48.204;16.202;2023-05-07T07:13:09;14.50;99.90
62991;DHT22;49084;48.204;16.202;2023-05-07T07:15:35;14.60;99.90
62991;DHT22;49084;48.204;16.202;2023-05-07T07:18:00;14.70;99.90
62991;DHT22;49084;48.204;16.202;2023-05-07T07:20:26;14.80;99.90
62991;DHT22;49084;48.204;16.202;2023-05-07T07:22:52;15.00;99.90
62991;DHT22;49084;48.204;16.202;2023-05-07T07:25:17;15.40;99.90
62991;DHT22;49084;48.204;16.202;2023-05-07T07:27:43;15.90;99.90
62991;DHT22;49084;48.204;16.202;2023-05-07T07:30:09;16.10;99.90
62991;DHT22;49084;48.204;16.202;2023-05-07T07:32:35;16.10;99.90
62991;DHT22;49084;48.204;16.202;2023-05-07T07:35:00;16.10;99.90
62991;DHT22;49084;48.204;16.202;2023-05-07T07:37:27;16.10;99.90
62991;DHT22;49084;48.204;16.202;2023-05-07T07:39:52;16.10;99.90
62991;DHT22;49084;48.204;16.202;2023-05-07T07:42:18;16.00;99.90
62991;DHT22;49084;48.204;16.202;2023-05-07T07:44:43;15.80;99.90
62991;DHT22;49084;48.204;16.202;2023-05-07T07:47:10;15.80;99.90
62991;DHT22;49084;48.204;16.202;2023-05-07T07:49:35;15.70;99.90
62991;DHT22;49084;48.204;16.202;2023-05-07T07:52:01;15.70;99.90
62991;DHT22;49084;48.204;16.202;2023-05-07T07:54:27;15.80;99.90
62991;DHT22;49084;48.204;16.202;2023-05-07T07:56:52;16.00;99.90
62991;DHT22;49084;48.204;16.202;2023-05-07T07:59:18;16.10;99.90
62991;DHT22;49084;48.204;16.202;2023-05-07T08:01:44;16.30;99.90
62991;DHT22;49084;48.204;16.202;2023-05-07T08:04:10;16.30;99.90
62991;DHT22;49084;48.204;16.202;2023-05-07T08:06:36;16.40;99.90
62991;DHT22;49084;48.204;16.202;2023-05-07T08:09:01;16.50;99.90
62991;DHT22;49084;48.204;16.202;2023-05-07T08:11:28;16.70;99.90
62991;DHT22;49084;48.204;16.202;2023-05-07T08:13:54;16.80;99.90
62991;DHT22;49084;48.204;16.202;2023-05-07T08:16:20;16.90;99.90
62991;DHT22;49084;48.204;16.202;2023-05-07T08:18:46;17.00;99.90
62991;DHT22;49084;48.204;16.202;2023-05-07T08:21:11;17.20;99.90
62991;DHT22;49084;48.204;16.202;2023-05-07T08:23:37;17.10;99.90
62991;DHT22;49084;48.204;16.202;2023-05-07T08:26:03;17.00;99.90
62991;DHT22;49084;48.204;16.202;2023-05-07T08:28:28;17.20;99.90
62991;DHT22;49084;48.204;16.202;2023-05-07T08:30:54;17.50;99.90
62991;DHT22;49084;48.204;16.202;2023-05-07T08:33:21;17.90;99.90
62991;DHT22;49084;48.204;16.202;2023-05-07T08:35:47;18.80;99.90
62991;DHT22;49084;48.204;16.202;2023-05-07T08:38:13;19.20;99.90
62991;DHT22;49084;48.204;16.202;2023-05-07T08:40:39;19.10;99.90
62991;DHT22;49084;48.204;16.202;2023-05-07T08:43:07;19.00;99.90
62991;DHT22;49084;48.204;16.202;2023-05-07T08:45:34;18.90;99.90
62991;DHT22;49084;48.204;16.202;2023-05-07T08:48:02;18.60;99.90
62991;DHT22;49084;48.204;16.202;2023-05-07T08:50:29;18.30;99.90
62991;DHT22;49084;48.204;16.202;2023-05-07T08:52:55;18.00;99.90
62991;DHT22;49084;48.204;16.202;2023-05-07T08:55:22;17.80;99.90
62991;DHT22;49084;48.204;16.202;2023-05-07T08:57:50;17.90;99.90
62991;DHT22;49084;48.204;16.202;2023-05-07T09:00:18;18.10;99.90
62991;DHT22;49084;48.204;16.202;2023-05-07T09:02:43;18.30;99.90
62991;DHT22;49084;48.204;16.202;2023-05-07T09:05:09;18.50;99.90
62991;DHT22;49084;48.204;16.202;2023-05-07T09:07:35;18.80;99.90
62991;DHT22;49084;48.204;16.202;2023-05-07T09:10:04;19.10;99.90
62991;DHT22;49084;48.204;16.202;2023-05-07T09:12:30;19.90;99.90
62991;DHT22;49084;48.204;16.202;2023-05-07T09:14:56;21.00;97.30
62991;DHT22;49084;48.204;16.202;2023-05-07T09:17:22;21.20;95.40
62991;DHT22;49084;48.204;16.202;2023-05-07T09:19:47;21.40;93.20
62991;DHT22;49084;48.204;16.202;2023-05-07T09:22:13;21.20;93.60
62991;DHT22;49084;48.204;16.202;2023-05-07T09:24:39;20.70;95.40
62991;DHT22;49084;48.204;16.202;2023-05-07T09:27:05;20.10;95.90
62991;DHT22;49084;48.204;16.202;2023-05-07T09:29:31;19.40;98.80
62991;DHT22;49084;48.204;16.202;2023-05-07T09:32:06;19.20;99.60
62991;DHT22;49084;48.204;16.202;2023-05-07T09:34:32;19.40;99.90
62991;DHT22;49084;48.204;16.202;2023-05-07T09:37:02;19.80;99.50
62991;DHT22;49084;48.204;16.202;2023-05-07T09:39:48;20.50;98.10
62991;DHT22;49084;48.204;16.202;2023-05-07T09:42:14;21.00;95.40
62991;DHT22;49084;48.204;16.202;2023-05-07T09:44:41;21.40;94.90
62991;DHT22;49084;48.204;16.202;2023-05-07T09:47:08;22.20;92.60
62991;DHT22;49084;48.204;16.202;2023-05-07T09:49:35;22.90;91.00
62991;DHT22;49084;48.204;16.202;2023-05-07T09:52:03;22.40;89.70
62991;DHT22;49084;48.204;16.202;2023-05-07T09:54:32;21.70;90.80
62991;DHT22;49084;48.204;16.202;2023-05-07T09:56:59;21.50;92.70
62991;DHT22;49084;48.204;16.202;2023-05-07T09:59:28;21.30;92.70
62991;DHT22;49084;48.204;16.202;2023-05-07T10:01:57;21.10;92.30
62991;DHT22;49084;48.204;16.202;2023-05-07T10:04:25;21.10;92.40
62991;DHT22;49084;48.204;16.202;2023-05-07T10:06:51;21.50;92.40
62991;DHT22;49084;48.204;16.202;2023-05-07T10:09:16;21.70;92.10
62991;DHT22;49084;48.204;16.202;2023-05-07T10:11:42;21.50;91.70
62991;DHT22;49084;48.204;16.202;2023-05-07T10:14:09;21.50;92.00
62991;DHT22;49084;48.204;16.202;2023-05-07T10:16:36;21.70;91.10
62991;DHT22;49084;48.204;16.202;2023-05-07T10:19:03;22.50;90.80
62991;DHT22;49084;48.204;16.202;2023-05-07T10:21:30;23.30;86.20
62991;DHT22;49084;48.204;16.202;2023-05-07T10:24:04;23.30;83.00
62991;DHT22;49084;48.204;16.202;2023-05-07T10:26:36;23.00;81.70
62991;DHT22;49084;48.204;16.202;2023-05-07T10:34:40;24.20;74.00
62991;DHT22;49084;48.204;16.202;2023-05-07T10:37:07;24.00;72.80
62991;DHT22;49084;48.204;16.202;2023-05-07T10:39:34;23.10;74.40
62991;DHT22;49084;48.204;16.202;2023-05-07T10:42:10;22.60;79.10
62991;DHT22;49084;48.204;16.202;2023-05-07T10:44:36;23.00;77.20
62991;DHT22;49084;48.204;16.202;2023-05-07T10:47:12;23.00;75.00
62991;DHT22;49084;48.204;16.202;2023-05-07T10:52:21;23.10;73.00
62991;DHT22;49084;48.204;16.202;2023-05-07T10:57:44;24.20;71.20
62991;DHT22;49084;48.204;16.202;2023-05-07T11:05:25;23.70;69.30
62991;DHT22;49084;48.204;16.202;2023-05-07T11:07:56;23.60;70.30
62991;DHT22;49084;48.204;16.202;2023-05-07T11:10:22;23.80;69.90
62991;DHT22;49084;48.204;16.202;2023-05-07T11:12:48;24.00;70.80
62991;DHT22;49084;48.204;16.202;2023-05-07T11:15:15;24.50;69.00
62991;DHT22;49084;48.204;16.202;2023-05-07T11:17:58;24.00;67.60
62991;DHT22;49084;48.204;16.202;2023-05-07T11:20:58;24.10;68.30
62991;DHT22;49084;48.204;16.202;2023-05-07T11:26:06;25.70;65.90
62991;DHT22;49084;48.204;16.202;2023-05-07T11:28:38;25.70;63.40
62991;DHT22;49084;48.204;16.202;2023-05-07T11:31:05;24.60;63.20
62991;DHT22;49084;48.204;16.202;2023-05-07T11:33:31;23.80;66.00
62991;DHT22;49084;48.204;16.202;2023-05-07T11:35:57;23.30;67.40
62991;DHT22;49084;48.204;16.202;2023-05-07T11:38:23;24.30;66.20
62991;DHT22;49084;48.204;16.202;2023-05-07T11:40:58;24.00;65.40
62991;DHT22;49084;48.204;16.202;2023-05-07T11:43:28;24.30;65.30
62991;DHT22;49084;48.204;16.202;2023-05-07T11:45:53;24.40;64.70
62991;DHT22;49084;48.204;16.202;2023-05-07T11:48:21;25.50;63.50
62991;DHT22;49084;48.204;16.202;2023-05-07T11:50:51;26.50;61.00
62991;DHT22;49084;48.204;16.202;2023-05-07T11:53:18;26.90;59.50
62991;DHT22;49084;48.204;16.202;2023-05-07T11:55:44;26.90;57.40
62991;DHT22;49084;48.204;16.202;2023-05-07T11:58:12;25.70;58.50
62991;DHT22;49084;48.204;16.202;2023-05-07T12:00:38;25.20;60.30
62991;DHT22;49084;48.204;16.202;2023-05-07T12:03:04;25.10;61.10
62991;DHT22;49084;48.204;16.202;2023-05-07T12:05:30;24.90;59.20
62991;DHT22;49084;48.204;16.202;2023-05-07T12:07:57;25.00;60.60
62991;DHT22;49084;48.204;16.202;2023-05-07T12:10:22;24.90;60.80
62991;DHT22;49084;48.204;16.202;2023-05-07T12:12:50;23.70;62.30
62991;DHT22;49084;48.204;16.202;2023-05-07T12:15:16;23.00;64.10
62991;DHT22;49084;48.204;16.202;2023-05-07T12:17:43;22.80;66.10
62991;DHT22;49084;48.204;16.202;2023-05-07T12:20:09;22.90;66.90
62991;DHT22;49084;48.204;16.202;2023-05-07T12:22:36;22.50;67.20
62991;DHT22;49084;48.204;16.202;2023-05-07T12:25:02;22.30;68.50
62991;DHT22;49084;48.204;16.202;2023-05-07T12:27:28;22.10;69.30
62991;DHT22;49084;48.204;16.202;2023-05-07T12:29:54;21.80;71.00
62991;DHT22;49084;48.204;16.202;2023-05-07T12:32:21;21.70;72.40
62991;DHT22;49084;48.204;16.202;2023-05-07T12:34:50;21.70;71.60
62991;DHT22;49084;48.204;16.202;2023-05-07T12:37:16;21.60;72.00
62991;DHT22;49084;48.204;16.202;2023-05-07T12:39:47;21.60;71.60
62991;DHT22;49084;48.204;16.202;2023-05-07T12:42:18;21.60;72.40
62991;DHT22;49084;48.204;16.202;2023-05-07T12:44:45;21.90;71.60
62991;DHT22;49084;48.204;16.202;2023-05-07T12:47:11;22.60;69.60
62991;DHT22;49084;48.204;16.202;2023-05-07T12:49:38;23.50;67.20
62991;DHT22;49084;48.204;16.202;2023-05-07T12:52:05;23.80;67.50
62991;DHT22;49084;48.204;16.202;2023-05-07T12:54:32;23.40;66.70
62991;DHT22;49084;48.204;16.202;2023-05-07T12:57:08;23.00;67.70
62991;DHT22;49084;48.204;16.202;2023-05-07T12:59:36;22.70;67.70
62991;DHT22;49084;48.204;16.202;2023-05-07T13:02:02;22.30;69.90
62991;DHT22;49084;48.204;16.202;2023-05-07T13:04:28;22.10;70.80
62991;DHT22;49084;48.204;16.202;2023-05-07T13:06:54;22.00;71.10
62991;DHT22;49084;48.204;16.202;2023-05-07T13:09:19;22.10;71.20
62991;DHT22;49084;48.204;16.202;2023-05-07T13:11:45;22.10;71.00
62991;DHT22;49084;48.204;16.202;2023-05-07T13:14:11;22.00;70.00
62991;DHT22;49084;48.204;16.202;2023-05-07T13:16:37;21.50;70.30
62991;DHT22;49084;48.204;16.202;2023-05-07T13:19:02;21.10;71.70
62991;DHT22;49084;48.204;16.202;2023-05-07T13:21:28;20.90;72.80
62991;DHT22;49084;48.204;16.202;2023-05-07T13:23:53;20.80;72.90
62991;DHT22;49084;48.204;16.202;2023-05-07T13:26:19;20.60;73.40
62991;DHT22;49084;48.204;16.202;2023-05-07T13:28:45;20.60;74.10
62991;DHT22;49084;48.204;16.202;2023-05-07T13:31:11;20.80;73.30
62991;DHT22;49084;48.204;16.202;2023-05-07T13:33:37;21.20;73.50
62991;DHT22;49084;48.204;16.202;2023-05-07T13:36:03;21.80;70.50
62991;DHT22;49084;48.204;16.202;2023-05-07T13:38:30;21.60;71.10
62991;DHT22;49084;48.204;16.202;2023-05-07T13:40:56;21.80;69.60
62991;DHT22;49084;48.204;16.202;2023-05-07T13:43:22;21.90;69.50
62991;DHT22;49084;48.204;16.202;2023-05-07T13:45:47;21.50;69.90
62991;DHT22;49084;48.204;16.202;2023-05-07T13:48:13;21.10;70.90
62991;DHT22;49084;48.204;16.202;2023-05-07T13:50:39;21.00;71.40
62991;DHT22;49084;48.204;16.202;2023-05-07T13:53:04;20.90;71.40
62991;DHT22;49084;48.204;16.202;2023-05-07T13:55:30;20.80;72.40
62991;DHT22;49084;48.204;16.202;2023-05-07T13:57:58;20.70;72.10
62991;DHT22;49084;48.204;16.202;2023-05-07T14:00:25;20.70;72.20
62991;DHT22;49084;48.204;16.202;2023-05-07T14:02:51;20.30;72.40
62991;DHT22;49084;48.204;16.202;2023-05-07T14:05:18;20.20;73.10
62991;DHT22;49084;48.204;16.202;2023-05-07T14:07:43;20.40;73.90
62991;DHT22;49084;48.204;16.202;2023-05-07T14:10:09;20.30;73.30
62991;DHT22;49084;48.204;16.202;2023-05-07T14:12:36;20.60;73.10
62991;DHT22;49084;48.204;16.202;2023-05-07T14:15:02;20.70;72.70
62991;DHT22;49084;48.204;16.202;2023-05-07T14:17:28;20.80;73.40
62991;DHT22;49084;48.204;16.202;2023-05-07T14:19:54;20.70;72.80
62991;DHT22;49084;48.204;16.202;2023-05-07T14:22:21;20.60;73.00
62991;DHT22;49084;48.204;16.202;2023-05-07T14:24:47;20.30;73.80
62991;DHT22;49084;48.204;16.202;2023-05-07T14:27:13;20.20;73.50
62991;DHT22;49084;48.204;16.202;2023-05-07T14:29:39;20.20;73.30
62991;DHT22;49084;48.204;16.202;2023-05-07T14:32:05;20.10;73.30
62991;DHT22;49084;48.204;16.202;2023-05-07T14:34:31;20.10;73.50
62991;DHT22;49084;48.204;16.202;2023-05-07T14:36:58;19.90;75.40
62991;DHT22;49084;48.204;16.202;2023-05-07T14:39:23;20.00;74.00
62991;DHT22;49084;48.204;16.202;2023-05-07T14:41:49;20.00;74.20
62991;DHT22;49084;48.204;16.202;2023-05-07T14:44:15;20.00;74.40
62991;DHT22;49084;48.204;16.202;2023-05-07T14:46:40;20.20;74.50
62991;DHT22;49084;48.204;16.202;2023-05-07T14:49:06;20.20;73.10
62991;DHT22;49084;48.204;16.202;2023-05-07T14:51:32;20.10;72.80
62991;DHT22;49084;48.204;16.202;2023-05-07T14:53:58;20.00;73.80
62991;DHT22;49084;48.204;16.202;2023-05-07T14:56:24;19.80;73.80
62991;DHT22;49084;48.204;16.202;2023-05-07T14:58:50;19.70;74.70
62991;DHT22;49084;48.204;16.202;2023-05-07T15:01:15;19.70;74.90
62991;DHT22;49084;48.204;16.202;2023-05-07T15:03:41;19.60;75.80
62991;DHT22;49084;48.204;16.202;2023-05-07T15:06:07;19.70;76.10
62991;DHT22;49084;48.204;16.202;2023-05-07T15:08:32;19.70;76.20
62991;DHT22;49084;48.204;16.202;2023-05-07T15:10:58;19.70;77.30
62991;DHT22;49084;48.204;16.202;2023-05-07T15:13:24;19.40;77.00
62991;DHT22;49084;48.204;16.202;2023-05-07T15:15:49;19.10;77.60
62991;DHT22;49084;48.204;16.202;2023-05-07T15:18:16;18.90;78.20
62991;DHT22;49084;48.204;16.202;2023-05-07T15:20:41;18.70;79.40
62991;DHT22;49084;48.204;16.202;2023-05-07T15:23:08;18.60;80.00
62991;DHT22;49084;48.204;16.202;2023-05-07T15:25:36;18.50;80.40
62991;DHT22;49084;48.204;16.202;2023-05-07T15:28:02;18.50;81.10
62991;DHT22;49084;48.204;16.202;2023-05-07T15:30:28;18.70;81.00